sensor_id;sensor_type;location;lat;lon;timestamp;temperature;humidity
1994;DHT22;998;49.906;10.908;2023-04-06T00:01:01;4.30;92.60
1994;DHT22;998;49.906;10.908;2023-04-06T00:03:28;4.30;92.70
1994;DHT22;998;49.906;10.908;2023-04-06T00:05:56;4.20;92.80
1994;DHT22;998;49.906;10.908;2023-04-06T00:08:23;4.30;93.10
1994;DHT22;998;49.906;10.908;2023-04-06T00:10:52;4.30;93.30
1994;DHT22;998;49.906;10.908;2023-04-06T00:13:19;4.20;93.30
1994;DHT22;998;49.906;10.908;2023-04-06T00:15:47;4.20;93.50
1994;DHT22;998;49.906;10.908;2023-04-06T00:18:14;4.20;93.80
1994;DHT22;998;49.906;10.908;2023-04-06T00:20:42;4.10;94.00
1994;DHT22;998;49.906;10.908;2023-04-06T00:23:09;4.00;94.60
1994;DHT22;998;49.906;10.908;2023-04-06T00:25:36;4.00;94.70
1994;DHT22;998;49.906;10.908;2023-04-06T00:28:05;4.00;94.90
1994;DHT22;998;49.906;10.908;2023-04-06T00:30:32;3.90;95.50
1994;DHT22;998;49.906;10.908;2023-04-06T00:33:00;3.90;96.20
1994;DHT22;998;49.906;10.908;2023-04-06T00:35:27;3.90;96.50
1994;DHT22;998;49.906;10.908;2023-04-06T00:37:55;3.80;96.70
1994;DHT22;998;49.906;10.908;2023-04-06T00:40:22;3.80;96.70
1994;DHT22;998;49.906;10.908;2023-04-06T00:42:50;3.80;97.00
1994;DHT22;998;49.906;10.908;2023-04-06T00:45:19;3.80;97.30
1994;DHT22;998;49.906;10.908;2023-04-06T00:47:46;3.80;98.00
1994;DHT22;998;49.906;10.908;2023-04-06T00:50:14;3.80;97.80
1994;DHT22;998;49.906;10.908;2023-04-06T00:52:41;3.80;98.00
1994;DHT22;998;49.906;10.908;2023-04-06T00:55:09;3.80;98.30
1994;DHT22;998;49.906;10.908;2023-04-06T00:57:36;3.70;98.50
1994;DHT22;998;49.906;10.908;2023-04-06T01:00:05;3.80;98.80
1994;DHT22;998;49.906;10.908;2023-04-06T01:02:34;3.70;99.10
1994;DHT22;998;49.906;10.908;2023-04-06T01:05:02;3.70;99.40
1994;DHT22;998;49.906;10.908;2023-04-06T01:07:29;3.70;99.30
1994;DHT22;998;49.906;10.908;2023-04-06T01:09:57;3.60;99.80
1994;DHT22;998;49.906;10.908;2023-04-06T01:12:24;3.60;99.90
1994;DHT22;998;49.906;10.908;2023-04-06T01:14:52;3.60;99.90
1994;DHT22;998;49.906;10.908;2023-04-06T01:17:19;3.50;99.90
1994;DHT22;998;49.906;10.908;2023-04-06T01:19:48;3.40;99.90
1994;DHT22;998;49.906;10.908;2023-04-06T01:22:18;3.50;99.90
1994;DHT22;998;49.906;10.908;2023-04-06T01:24:46;3.50;99.90
1994;DHT22;998;49.906;10.908;2023-04-06T01:27:13;3.50;99.90
1994;DHT22;998;49.906;10.908;2023-04-06T01:29:41;3.50;99.90
1994;DHT22;998;49.906;10.908;2023-04-06T01:32:09;3.50;99.90
1994;DHT22;998;49.906;10.908;2023-04-06T01:34:36;3.60;99.90
1994;DHT22;998;49.906;10.908;2023-04-06T01:37:04;3.50;99.90
1994;DHT22;998;49.906;10.908;2023-04-06T01:39:32;3.40;99.90
1994;DHT22;998;49.906;10.908;2023-04-06T01:42:00;3.40;99.90
1994;DHT22;998;49.906;10.908;2023-04-06T01:44:27;3.40;99.90
1994;DHT22;998;49.906;10.908;2023-04-06T01:46:56;3.30;99.90
1994;DHT22;998;49.906;10.908;2023-04-06T01:49:23;3.30;99.90
1994;DHT22;998;49.906;10.908;2023-04-06T01:51:51;3.30;99.90
1994;DHT22;998;49.906;10.908;2023-04-06T01:54:20;3.30;99.90
1994;DHT22;998;49.906;10.908;2023-04-06T01:56:49;3.30;99.90
1994;DHT22;998;49.906;10.908;2023-04-06T01:59:18;3.20;99.90
1994;DHT22;998;49.906;10.908;2023-04-06T02:01:45;3.20;99.90
1994;DHT22;998;49.906;10.908;2023-04-06T02:04:12;3.20;99.90
1994;DHT22;998;49.906;10.908;2023-04-06T02:06:40;3.20;99.90
1994;DHT22;998;49.906;10.908;2023-04-06T02:09:07;3.20;99.90
1994;DHT22;998;49.906;10.908;2023-04-06T02:11:34;3.20;99.90
1994;DHT22;998;49.906;10.908;2023-04-06T02:14:03;3.10;99.90
1994;DHT22;998;49.906;10.908;2023-04-06T02:16:31;3.10;99.90
1994;DHT22;998;49.906;10.908;2023-04-06T02:18:58;3.10;99.90
1994;DHT22;998;49.906;10.908;2023-04-06T02:21:26;3.00;99.90
1994;DHT22;998;49.906;10.908;2023-04-06T02:23:53;2.90;99.90
1994;DHT22;998;49.906;10.908;2023-04-06T02:26:20;2.90;99.90
1994;DHT22;998;49.906;10.908;2023-04-06T02:28:48;2.80;99.90
1994;DHT22;998;49.906;10.908;2023-04-06T02:31:17;2.90;99.90
1994;DHT22;998;49.906;10.908;2023-04-06T02:33:44;2.80;99.90
1994;DHT22;998;49.906;10.908;2023-04-06T02:36:12;2.80;99.90
1994;DHT22;998;49.906;10.908;2023-04-06T02:38:39;2.70;99.90
1994;DHT22;998;49.906;10.908;2023-04-06T02:41:07;2.80;99.90
1994;DHT22;998;49.906;10.908;2023-04-06T02:43:34;2.70;99.90
1994;DHT22;998;49.906;10.908;2023-04-06T02:46:01;2.80;99.90
1994;DHT22;998;49.906;10.908;2023-04-06T02:48:30;2.70;99.90
1994;DHT22;998;49.906;10.908;2023-04-06T02:51:01;2.70;99.90
1994;DHT22;998;49.906;10.908;2023-04-06T02:53:29;2.70;99.90
1994;DHT22;998;49.906;10.908;2023-04-06T02:55:56;2.70;99.90
1994;DHT22;998;49.906;10.908;2023-04-06T02:58:24;2.60;99.90
1994;DHT22;998;49.906;10.908;2023-04-06T03:00:51;2.70;99.90
1994;DHT22;998;49.906;10.908;2023-04-06T03:03:18;2.60;99.90
1994;DHT22;998;49.906;10.908;2023-04-06T03:05:47;2.60;99.90
1994;DHT22;998;49.906;10.908;2023-04-06T03:08:15;2.70;99.90
1994;DHT22;998;49.906;10.908;2023-04-06T03:10:42;2.60;99.90
1994;DHT22;998;49.906;10.908;2023-04-06T03:13:10;2.60;99.90
1994;DHT22;998;49.906;10.908;2023-04-06T03:15:37;2.60;99.90
1994;DHT22;998;49.906;10.908;2023-04-06T03:18:05;2.60;99.90
1994;DHT22;998;49.906;10.908;2023-04-06T03:20:32;2.60;99.90
1994;DHT22;998;49.906;10.908;2023-04-06T03:23:01;2.60;99.90
1994;DHT22;998;49.906;10.908;2023-04-06T03:25:29;2.60;99.90
1994;DHT22;998;49.906;10.908;2023-04-06T03:27:57;2.50;99.90
1994;DHT22;998;49.906;10.908;2023-04-06T03:30:24;2.40;99.90
1994;DHT22;998;49.906;10.908;2023-04-06T03:32:52;2.50;99.90
1994;DHT22;998;49.906;10.908;2023-04-06T03:35:19;2.40;99.90
1994;DHT22;998;49.906;10.908;2023-04-06T03:37:47;2.40;99.90
1994;DHT22;998;49.906;10.908;2023-04-06T03:40:16;2.40;99.90
1994;DHT22;998;49.906;10.908;2023-04-06T03:42:43;2.40;99.90
1994;DHT22;998;49.906;10.908;2023-04-06T03:45:11;2.40;99.90
1994;DHT22;998;49.906;10.908;2023-04-06T03:47:39;2.40;99.90
1994;DHT22;998;49.906;10.908;2023-04-06T03:50:07;2.40;99.90
1994;DHT22;998;49.906;10.908;2023-04-06T03:52:35;2.40;99.90
1994;DHT22;998;49.906;10.908;2023-04-06T03:55:03;2.30;99.90
1994;DHT22;998;49.906;10.908;2023-04-06T03:57:32;2.30;99.90
1994;DHT22;998;49.906;10.908;2023-04-06T04:00:00;2.20;99.90
1994;DHT22;998;49.906;10.908;2023-04-06T04:02:28;2.20;99.90
1994;DHT22;998;49.906;10.908;2023-04-06T04:04:55;2.20;99.90
1994;DHT22;998;49.906;10.908;2023-04-06T04:07:22;2.20;99.90
1994;DHT22;998;49.906;10.908;2023-04-06T04:09:50;2.20;99.90
1994;DHT22;998;49.906;10.908;2023-04-06T04:12:17;2.20;99.90
1994;DHT22;998;49.906;10.908;2023-04-06T04:14:46;2.20;99.90
1994;DHT22;998;49.906;10.908;2023-04-06T04:17:14;2.20;99.90
1994;DHT22;998;49.906;10.908;2023-04-06T04:19:41;2.20;99.90
1994;DHT22;998;49.906;10.908;2023-04-06T04:22:08;2.10;99.90
1994;DHT22;998;49.906;10.908;2023-04-06T04:24:36;2.10;99.90
1994;DHT22;998;49.906;10.908;2023-04-06T04:27:03;2.10;99.90
1994;DHT22;998;49.906;10.908;2023-04-06T04:29:31;2.10;99.90
1994;DHT22;998;49.906;10.908;2023-04-06T04:32:00;2.10;99.90
1994;DHT22;998;49.906;10.908;2023-04-06T04:34:28;2.10;99.90
1994;DHT22;998;49.906;10.908;2023-04-06T04:36:56;2.00;99.90
1994;DHT22;998;49.906;10.908;2023-04-06T04:39:24;2.00;99.90
1994;DHT22;998;49.906;10.908;2023-04-06T04:41:51;2.00;99.90
1994;DHT22;998;49.906;10.908;2023-04-06T04:44:19;2.00;99.90
1994;DHT22;998;49.906;10.908;2023-04-06T04:46:47;2.00;99.90
1994;DHT22;998;49.906;10.908;2023-04-06T04:49:15;2.00;99.90
1994;DHT22;998;49.906;10.908;2023-04-06T04:51:43;2.00;99.90
1994;DHT22;998;49.906;10.908;2023-04-06T04:54:11;1.80;99.90
1994;DHT22;998;49.906;10.908;2023-04-06T04:56:38;1.90;99.90
1994;DHT22;998;49.906;10.908;2023-04-06T04:59:06;1.80;99.90
1994;DHT22;998;49.906;10.908;2023-04-06T05:01:33;1.80;99.90
1994;DHT22;998;49.906;10.908;2023-04-06T05:04:01;1.80;99.90
1994;DHT22;998;49.906;10.908;2023-04-06T05:06:29;1.80;99.90
1994;DHT22;998;49.906;10.908;2023-04-06T05:08:57;1.80;99.90
1994;DHT22;998;49.906;10.908;2023-04-06T05:11:24;1.80;99.90
1994;DHT22;998;49.906;10.908;2023-04-06T05:13:52;1.70;99.90
1994;DHT22;998;49.906;10.908;2023-04-06T05:16:19;1.80;99.90
1994;DHT22;998;49.906;10.908;2023-04-06T05:18:47;1.80;99.90
1994;DHT22;998;49.906;10.908;2023-04-06T05:21:15;1.80;99.90
1994;DHT22;998;49.906;10.908;2023-04-06T05:23:44;1.70;99.90
1994;DHT22;998;49.906;10.908;2023-04-06T05:26:11;1.80;99.90
1994;DHT22;998;49.906;10.908;2023-04-06T05:28:39;1.80;99.90
1994;DHT22;998;49.906;10.908;2023-04-06T05:31:08;1.80;99.90
1994;DHT22;998;49.906;10.908;2023-04-06T05:33:35;1.80;99.90
1994;DHT22;998;49.906;10.908;2023-04-06T05:36:03;1.80;99.90
1994;DHT22;998;49.906;10.908;2023-04-06T05:38:32;1.80;99.90
1994;DHT22;998;49.906;10.908;2023-04-06T05:41:01;1.80;99.90
1994;DHT22;998;49.906;10.908;2023-04-06T05:43:29;1.80;99.90
1994;DHT22;998;49.906;10.908;2023-04-06T05:45:56;1.80;99.90
1994;DHT22;998;49.906;10.908;2023-04-06T05:48:24;1.80;99.90
1994;DHT22;998;49.906;10.908;2023-04-06T05:50:51;1.80;99.90
1994;DHT22;998;49.906;10.908;2023-04-06T05:53:19;1.80;99.90
1994;DHT22;998;49.906;10.908;2023-04-06T05:55:47;1.80;99.90
1994;DHT22;998;49.906;10.908;2023-04-06T05:58:16;1.90;99.90
1994;DHT22;998;49.906;10.908;2023-04-06T06:00:44;1.80;99.90
1994;DHT22;998;49.906;10.908;2023-04-06T06:03:12;1.80;99.90
1994;DHT22;998;49.906;10.908;2023-04-06T06:05:41;1.90;99.90
1994;DHT22;998;49.906;10.908;2023-04-06T06:08:08;1.90;99.90
1994;DHT22;998;49.906;10.908;2023-04-06T06:10:36;2.00;99.90
1994;DHT22;998;49.906;10.908;2023-04-06T06:13:05;2.00;99.90
1994;DHT22;998;49.906;10.908;2023-04-06T06:15:33;2.10;99.90
1994;DHT22;998;49.906;10.908;2023-04-06T06:18:01;2.00;99.90
1994;DHT22;998;49.906;10.908;2023-04-06T06:20:28;2.10;99.90
1994;DHT22;998;49.906;10.908;2023-04-06T06:22:56;2.10;99.90
1994;DHT22;998;49.906;10.908;2023-04-06T06:25:23;2.10;99.90
1994;DHT22;998;49.906;10.908;2023-04-06T06:27:51;2.10;99.90
1994;DHT22;998;49.906;10.908;2023-04-06T06:30:18;2.10;99.90
1994;DHT22;998;49.906;10.908;2023-04-06T06:32:47;2.10;99.90
1994;DHT22;998;49.906;10.908;2023-04-06T06:35:15;2.20;99.90
1994;DHT22;998;49.906;10.908;2023-04-06T06:37:43;2.20;99.90
1994;DHT22;998;49.906;10.908;2023-04-06T06:40:11;2.30;99.90
1994;DHT22;998;49.906;10.908;2023-04-06T06:42:39;2.30;99.90
1994;DHT22;998;49.906;10.908;2023-04-06T06:45:08;2.30;99.90
1994;DHT22;998;49.906;10.908;2023-04-06T06:47:36;2.30;99.90
1994;DHT22;998;49.906;10.908;2023-04-06T06:50:06;2.40;99.90
1994;DHT22;998;49.906;10.908;2023-04-06T06:52:34;2.40;99.90
1994;DHT22;998;49.906;10.908;2023-04-06T06:55:01;2.50;99.90
1994;DHT22;998;49.906;10.908;2023-04-06T06:57:29;2.50;99.90
1994;DHT22;998;49.906;10.908;2023-04-06T06:59:56;2.50;99.90
1994;DHT22;998;49.906;10.908;2023-04-06T07:02:25;2.50;99.90
1994;DHT22;998;49.906;10.908;2023-04-06T07:04:53;2.50;99.90
1994;DHT22;998;49.906;10.908;2023-04-06T07:07:22;2.50;99.90
1994;DHT22;998;49.906;10.908;2023-04-06T07:09:49;2.60;99.90
1994;DHT22;998;49.906;10.908;2023-04-06T07:12:17;2.70;99.90
1994;DHT22;998;49.906;10.908;2023-04-06T07:14:44;2.70;99.90
1994;DHT22;998;49.906;10.908;2023-04-06T07:17:12;2.80;99.90
1994;DHT22;998;49.906;10.908;2023-04-06T07:19:39;2.90;99.90
1994;DHT22;998;49.906;10.908;2023-04-06T07:22:07;2.90;99.90
1994;DHT22;998;49.906;10.908;2023-04-06T07:24:35;3.00;99.90
1994;DHT22;998;49.906;10.908;2023-04-06T07:27:03;3.00;99.90
1994;DHT22;998;49.906;10.908;2023-04-06T07:29:30;3.10;99.90
1994;DHT22;998;49.906;10.908;2023-04-06T07:31:58;3.20;99.90
1994;DHT22;998;49.906;10.908;2023-04-06T07:34:25;3.20;99.90
1994;DHT22;998;49.906;10.908;2023-04-06T07:36:53;3.30;99.90
1994;DHT22;998;49.906;10.908;2023-04-06T07:39:20;3.30;99.90
1994;DHT22;998;49.906;10.908;2023-04-06T07:41:49;3.40;99.90
1994;DHT22;998;49.906;10.908;2023-04-06T07:44:16;3.40;99.90
1994;DHT22;998;49.906;10.908;2023-04-06T07:46:44;3.40;99.90
1994;DHT22;998;49.906;10.908;2023-04-06T07:49:11;3.50;99.90
1994;DHT22;998;49.906;10.908;2023-04-06T07:51:39;3.60;99.90
1994;DHT22;998;49.906;10.908;2023-04-06T07:54:07;3.60;99.90
1994;DHT22;998;49.906;10.908;2023-04-06T07:56:34;3.70;99.90
1994;DHT22;998;49.906;10.908;2023-04-06T07:59:03;3.80;99.90
1994;DHT22;998;49.906;10.908;2023-04-06T08:01:30;3.90;99.90
1994;DHT22;998;49.906;10.908;2023-04-06T08:03:57;4.00;99.90
1994;DHT22;998;49.906;10.908;2023-04-06T08:06:26;4.10;99.90
1994;DHT22;998;49.906;10.908;2023-04-06T08:08:54;4.10;99.90
1994;DHT22;998;49.906;10.908;2023-04-06T08:11:21;4.20;99.90
1994;DHT22;998;49.906;10.908;2023-04-06T08:13:48;4.30;99.90
1994;DHT22;998;49.906;10.908;2023-04-06T08:16:16;4.30;99.90
1994;DHT22;998;49.906;10.908;2023-04-06T08:18:43;4.40;99.90
1994;DHT22;998;49.906;10.908;2023-04-06T08:21:10;4.60;99.90
1994;DHT22;998;49.906;10.908;2023-04-06T08:23:37;4.60;99.90
1994;DHT22;998;49.906;10.908;2023-04-06T08:26:04;4.60;99.90
1994;DHT22;998;49.906;10.908;2023-04-06T08:28:31;4.70;99.90
1994;DHT22;998;49.906;10.908;2023-04-06T08:31:03;4.80;99.90
1994;DHT22;998;49.906;10.908;2023-04-06T08:33:33;4.90;99.90
1994;DHT22;998;49.906;10.908;2023-04-06T08:36:10;4.90;99.90
1994;DHT22;998;49.906;10.908;2023-04-06T08:38:37;4.90;99.90
1994;DHT22;998;49.906;10.908;2023-04-06T08:41:08;4.90;99.90
1994;DHT22;998;49.906;10.908;2023-04-06T08:43:41;5.10;99.90
1994;DHT22;998;49.906;10.908;2023-04-06T08:46:09;5.10;99.90
1994;DHT22;998;49.906;10.908;2023-04-06T08:48:38;5.20;99.90
1994;DHT22;998;49.906;10.908;2023-04-06T08:51:06;5.20;99.90
1994;DHT22;998;49.906;10.908;2023-04-06T08:53:34;5.30;99.90
1994;DHT22;998;49.906;10.908;2023-04-06T08:56:01;5.40;99.90
1994;DHT22;998;49.906;10.908;2023-04-06T08:58:32;5.50;99.90
1994;DHT22;998;49.906;10.908;2023-04-06T09:01:00;5.60;99.90
1994;DHT22;998;49.906;10.908;2023-04-06T09:03:28;5.60;99.90
1994;DHT22;998;49.906;10.908;2023-04-06T09:05:58;5.70;99.90
1994;DHT22;998;49.906;10.908;2023-04-06T09:08:25;5.70;99.90
1994;DHT22;998;49.906;10.908;2023-04-06T09:10:52;5.80;99.90
1994;DHT22;998;49.906;10.908;2023-04-06T09:13:20;5.90;99.90
1994;DHT22;998;49.906;10.908;2023-04-06T09:15:58;6.00;99.90
1994;DHT22;998;49.906;10.908;2023-04-06T09:18:29;6.10;99.90
1994;DHT22;998;49.906;10.908;2023-04-06T09:21:00;6.10;99.90
1994;DHT22;998;49.906;10.908;2023-04-06T09:23:28;6.00;99.90
1994;DHT22;998;49.906;10.908;2023-04-06T09:26:09;6.10;99.90
1994;DHT22;998;49.906;10.908;2023-04-06T09:28:47;6.40;99.90
1994;DHT22;998;49.906;10.908;2023-04-06T09:31:16;6.50;98.90
1994;DHT22;998;49.906;10.908;2023-04-06T09:33:45;6.60;97.30
1994;DHT22;998;49.906;10.908;2023-04-06T09:36:14;6.60;97.20
1994;DHT22;998;49.906;10.908;2023-04-06T09:38:52;6.80;97.10
1994;DHT22;998;49.906;10.908;2023-04-06T09:41:22;6.90;97.00
1994;DHT22;998;49.906;10.908;2023-04-06T09:43:51;6.90;95.20
1994;DHT22;998;49.906;10.908;2023-04-06T09:46:21;6.80;94.50
1994;DHT22;998;49.906;10.908;2023-04-06T09:48:49;6.90;94.50
1994;DHT22;998;49.906;10.908;2023-04-06T09:51:19;6.90;94.70
1994;DHT22;998;49.906;10.908;2023-04-06T09:53:52;6.80;96.30
1994;DHT22;998;49.906;10.908;2023-04-06T09:56:24;7.00;95.30
1994;DHT22;998;49.906;10.908;2023-04-06T09:58:57;7.10;94.30
1994;DHT22;998;49.906;10.908;2023-04-06T10:01:30;7.10;93.60
1994;DHT22;998;49.906;10.908;2023-04-06T10:04:09;7.30;91.70
1994;DHT22;998;49.906;10.908;2023-04-06T10:06:41;7.30;90.90
1994;DHT22;998;49.906;10.908;2023-04-06T10:09:09;7.40;90.10
1994;DHT22;998;49.906;10.908;2023-04-06T10:11:37;7.30;90.30
1994;DHT22;998;49.906;10.908;2023-04-06T10:14:05;7.40;87.20
1994;DHT22;998;49.906;10.908;2023-04-06T10:16:33;7.50;87.90
1994;DHT22;998;49.906;10.908;2023-04-06T10:19:06;7.60;89.60
1994;DHT22;998;49.906;10.908;2023-04-06T10:21:36;7.80;85.20
1994;DHT22;998;49.906;10.908;2023-04-06T10:24:09;7.70;85.60
1994;DHT22;998;49.906;10.908;2023-04-06T10:26:38;7.80;83.60
1994;DHT22;998;49.906;10.908;2023-04-06T10:29:05;7.80;82.10
1994;DHT22;998;49.906;10.908;2023-04-06T10:31:39;8.10;79.70
1994;DHT22;998;49.906;10.908;2023-04-06T10:34:06;8.00;76.40
1994;DHT22;998;49.906;10.908;2023-04-06T10:36:34;8.00;76.20
1994;DHT22;998;49.906;10.908;2023-04-06T10:39:04;8.10;77.30
1994;DHT22;998;49.906;10.908;2023-04-06T10:41:34;8.20;76.30
1994;DHT22;998;49.906;10.908;2023-04-06T10:44:02;8.10;78.80
1994;DHT22;998;49.906;10.908;2023-04-06T10:46:30;8.20;77.70
1994;DHT22;998;49.906;10.908;2023-04-06T10:49:08;8.20;77.30
1994;DHT22;998;49.906;10.908;2023-04-06T10:51:38;8.30;80.50
1994;DHT22;998;49.906;10.908;2023-04-06T10:54:06;8.70;74.90
1994;DHT22;998;49.906;10.908;2023-04-06T10:56:37;8.80;74.10
1994;DHT22;998;49.906;10.908;2023-04-06T10:59:06;8.80;73.10
1994;DHT22;998;49.906;10.908;2023-04-06T11:01:34;8.70;75.70
1994;DHT22;998;49.906;10.908;2023-04-06T11:04:01;8.80;72.90
1994;DHT22;998;49.906;10.908;2023-04-06T11:06:30;8.70;73.50
1994;DHT22;998;49.906;10.908;2023-04-06T11:08:58;8.80;73.60
1994;DHT22;998;49.906;10.908;2023-04-06T11:11:26;9.00;69.70
1994;DHT22;998;49.906;10.908;2023-04-06T11:13:57;9.00;71.00
1994;DHT22;998;49.906;10.908;2023-04-06T11:16:25;9.10;70.50
1994;DHT22;998;49.906;10.908;2023-04-06T11:18:54;9.20;67.40
1994;DHT22;998;49.906;10.908;2023-04-06T11:21:33;9.20;70.70
1994;DHT22;998;49.906;10.908;2023-04-06T11:24:06;9.40;68.30
1994;DHT22;998;49.906;10.908;2023-04-06T11:26:37;9.80;64.30
1994;DHT22;998;49.906;10.908;2023-04-06T11:29:06;10.10;63.30
1994;DHT22;998;49.906;10.908;2023-04-06T11:31:41;10.40;62.60
1994;DHT22;998;49.906;10.908;2023-04-06T11:34:10;10.70;60.30
1994;DHT22;998;49.906;10.908;2023-04-06T11:36:41;11.30;60.30
1994;DHT22;998;49.906;10.908;2023-04-06T11:39:09;11.80;59.20
1994;DHT22;998;49.906;10.908;2023-04-06T11:41:37;12.10;58.80
1994;DHT22;998;49.906;10.908;2023-04-06T11:44:07;12.60;58.40
1994;DHT22;998;49.906;10.908;2023-04-06T11:46:34;13.00;59.00
1994;DHT22;998;49.906;10.908;2023-04-06T11:49:02;13.00;60.40
1994;DHT22;998;49.906;10.908;2023-04-06T11:51:29;13.20;58.40
1994;DHT22;998;49.906;10.908;2023-04-06T11:53:57;13.50;58.50
1994;DHT22;998;49.906;10.908;2023-04-06T11:56:27;13.60;57.30
1994;DHT22;998;49.906;10.908;2023-04-06T11:58:55;13.70;56.70
1994;DHT22;998;49.906;10.908;2023-04-06T12:01:25;14.10;54.90
1994;DHT22;998;49.906;10.908;2023-04-06T12:03:53;14.10;56.50
1994;DHT22;998;49.906;10.908;2023-04-06T12:06:20;14.30;55.60
1994;DHT22;998;49.906;10.908;2023-04-06T12:08:48;14.40;52.20
1994;DHT22;998;49.906;10.908;2023-04-06T12:11:15;14.30;54.80
1994;DHT22;998;49.906;10.908;2023-04-06T12:13:43;14.70;53.30
1994;DHT22;998;49.906;10.908;2023-04-06T12:16:10;14.50;52.30
1994;DHT22;998;49.906;10.908;2023-04-06T12:18:39;14.70;54.80
1994;DHT22;998;49.906;10.908;2023-04-06T12:21:06;15.00;54.70
1994;DHT22;998;49.906;10.908;2023-04-06T12:23:34;15.30;52.60
1994;DHT22;998;49.906;10.908;2023-04-06T12:26:02;15.30;51.20
1994;DHT22;998;49.906;10.908;2023-04-06T12:28:30;15.30;52.00
1994;DHT22;998;49.906;10.908;2023-04-06T12:30:57;15.70;51.40
1994;DHT22;998;49.906;10.908;2023-04-06T12:33:24;15.60;49.40
1994;DHT22;998;49.906;10.908;2023-04-06T12:35:53;15.20;49.60
1994;DHT22;998;49.906;10.908;2023-04-06T12:38:21;15.70;51.20
1994;DHT22;998;49.906;10.908;2023-04-06T12:40:48;16.10;53.20
1994;DHT22;998;49.906;10.908;2023-04-06T12:43:16;16.20;53.80
1994;DHT22;998;49.906;10.908;2023-04-06T12:45:43;16.50;53.30
1994;DHT22;998;49.906;10.908;2023-04-06T12:48:11;16.40;50.50
1994;DHT22;998;49.906;10.908;2023-04-06T12:50:39;16.20;49.10
1994;DHT22;998;49.906;10.908;2023-04-06T12:53:08;16.30;51.40
1994;DHT22;998;49.906;10.908;2023-04-06T12:55:35;16.60;53.10
1994;DHT22;998;49.906;10.908;2023-04-06T12:58:03;16.60;51.40
1994;DHT22;998;49.906;10.908;2023-04-06T13:00:30;16.20;48.30
1994;DHT22;998;49.906;10.908;2023-04-06T19:33:29;9.70;62.60
1994;DHT22;998;49.906;10.908;2023-04-06T19:35:56;10.00;65.50
1994;DHT22;998;49.906;10.908;2023-04-06T19:38:23;10.10;65.50
1994;DHT22;998;49.906;10.908;2023-04-06T19:40:51;10.20;65.20
1994;DHT22;998;49.906;10.908;2023-04-06T19:43:19;10.20;65.00
1994;DHT22;998;49.906;10.908;2023-04-06T19:45:47;10.20;65.10
1994;DHT22;998;49.906;10.908;2023-04-06T19:48:14;10.10;65.60
1994;DHT22;998;49.906;10.908;2023-04-06T19:50:43;10.00;65.50
1994;DHT22;998;49.906;10.908;2023-04-06T19:53:11;10.00;65.90
1994;DHT22;998;49.906;10.908;2023-04-06T19:55:38;10.00;65.70
1994;DHT22;998;49.906;10.908;2023-04-06T19:58:05;10.00;65.90
1994;DHT22;998;49.906;10.908;2023-04-06T20:00:33;9.90;68.20
1994;DHT22;998;49.906;10.908;2023-04-06T20:03:00;9.80;68.10
1994;DHT22;998;49.906;10.908;2023-04-06T20:05:28;9.80;68.30
1994;DHT22;998;49.906;10.908;2023-04-06T20:07:57;9.70;68.40
1994;DHT22;998;49.906;10.908;2023-04-06T20:10:24;9.70;69.30
1994;DHT22;998;49.906;10.908;2023-04-06T20:12:51;9.70;70.10
1994;DHT22;998;49.906;10.908;2023-04-06T20:15:19;9.70;70.80
1994;DHT22;998;49.906;10.908;2023-04-06T20:17:47;9.60;71.00
1994;DHT22;998;49.906;10.908;2023-04-06T20:20:15;9.60;71.70
1994;DHT22;998;49.906;10.908;2023-04-06T20:22:42;9.50;72.40
1994;DHT22;998;49.906;10.908;2023-04-06T20:25:12;9.50;72.90
1994;DHT22;998;49.906;10.908;2023-04-06T20:27:40;9.40;73.00
1994;DHT22;998;49.906;10.908;2023-04-06T20:30:08;9.40;73.10
1994;DHT22;998;49.906;10.908;2023-04-06T20:32:36;9.30;73.30
1994;DHT22;998;49.906;10.908;2023-04-06T20:35:04;9.30;73.60
1994;DHT22;998;49.906;10.908;2023-04-06T20:37:31;9.20;73.70
1994;DHT22;998;49.906;10.908;2023-04-06T20:39:59;9.10;74.20
1994;DHT22;998;49.906;10.908;2023-04-06T20:42:28;8.90;73.40
1994;DHT22;998;49.906;10.908;2023-04-06T20:44:56;8.90;73.50
1994;DHT22;998;49.906;10.908;2023-04-06T20:47:24;8.90;73.50
1994;DHT22;998;49.906;10.908;2023-04-06T20:49:51;8.90;73.60
1994;DHT22;998;49.906;10.908;2023-04-06T20:52:19;8.90;73.80
1994;DHT22;998;49.906;10.908;2023-04-06T20:54:47;9.00;74.20
1994;DHT22;998;49.906;10.908;2023-04-06T20:57:15;8.90;74.60
1994;DHT22;998;49.906;10.908;2023-04-06T20:59:44;8.90;75.20
1994;DHT22;998;49.906;10.908;2023-04-06T21:02:11;8.80;76.30
1994;DHT22;998;49.906;10.908;2023-04-06T21:04:39;8.70;77.00
1994;DHT22;998;49.906;10.908;2023-04-06T21:07:07;8.70;77.20
1994;DHT22;998;49.906;10.908;2023-04-06T21:09:35;8.60;77.40
1994;DHT22;998;49.906;10.908;2023-04-06T21:12:03;8.60;77.60
1994;DHT22;998;49.906;10.908;2023-04-06T21:14:31;8.60;77.90
1994;DHT22;998;49.906;10.908;2023-04-06T21:17:00;8.60;78.70
1994;DHT22;998;49.906;10.908;2023-04-06T21:19:27;8.50;79.60
1994;DHT22;998;49.906;10.908;2023-04-06T21:21:55;8.30;80.70
1994;DHT22;998;49.906;10.908;2023-04-06T21:24:22;8.30;81.20
1994;DHT22;998;49.906;10.908;2023-04-06T21:26:49;8.30;81.70
1994;DHT22;998;49.906;10.908;2023-04-06T21:29:17;8.30;81.90
1994;DHT22;998;49.906;10.908;2023-04-06T21:31:44;8.30;81.10
1994;DHT22;998;49.906;10.908;2023-04-06T21:34:13;8.20;81.00
1994;DHT22;998;49.906;10.908;2023-04-06T21:36:41;8.20;81.60
1994;DHT22;998;49.906;10.908;2023-04-06T21:39:09;8.10;82.30
1994;DHT22;998;49.906;10.908;2023-04-06T21:41:37;8.10;82.30
1994;DHT22;998;49.906;10.908;2023-04-06T21:44:05;8.00;82.30
1994;DHT22;998;49.906;10.908;2023-04-06T21:46:32;7.90;82.10
1994;DHT22;998;49.906;10.908;2023-04-06T21:49:00;7.60;81.00
1994;DHT22;998;49.906;10.908;2023-04-06T21:51:29;7.30;82.10
1994;DHT22;998;49.906;10.908;2023-04-06T21:53:57;7.30;83.10
1994;DHT22;998;49.906;10.908;2023-04-06T21:56:25;7.30;83.40
1994;DHT22;998;49.906;10.908;2023-04-06T21:58:53;7.40;83.90
1994;DHT22;998;49.906;10.908;2023-04-06T22:01:20;7.40;84.40
1994;DHT22;998;49.906;10.908;2023-04-06T22:03:47;7.30;85.00
1994;DHT22;998;49.906;10.908;2023-04-06T22:06:15;7.40;85.40
1994;DHT22;998;49.906;10.908;2023-04-06T22:08:44;7.50;85.70
1994;DHT22;998;49.906;10.908;2023-04-06T22:11:12;7.60;86.00
1994;DHT22;998;49.906;10.908;2023-04-06T22:13:40;7.60;85.40
1994;DHT22;998;49.906;10.908;2023-04-06T22:16:07;7.60;85.60
1994;DHT22;998;49.906;10.908;2023-04-06T22:18:35;7.50;85.70
1994;DHT22;998;49.906;10.908;2023-04-06T22:21:02;7.50;86.70
1994;DHT22;998;49.906;10.908;2023-04-06T22:23:30;7.40;87.60
1994;DHT22;998;49.906;10.908;2023-04-06T22:25:59;7.40;88.00
1994;DHT22;998;49.906;10.908;2023-04-06T22:28:26;7.30;87.80
1994;DHT22;998;49.906;10.908;2023-04-06T22:30:54;7.30;87.90
1994;DHT22;998;49.906;10.908;2023-04-06T22:33:21;7.10;88.60
1994;DHT22;998;49.906;10.908;2023-04-06T22:35:48;6.70;90.10
1994;DHT22;998;49.906;10.908;2023-04-06T22:38:16;6.50;91.20
1994;DHT22;998;49.906;10.908;2023-04-06T22:40:43;6.50;91.50
1994;DHT22;998;49.906;10.908;2023-04-06T22:43:12;6.40;92.20
1994;DHT22;998;49.906;10.908;2023-04-06T22:45:39;6.40;92.70
1994;DHT22;998;49.906;10.908;2023-04-06T22:48:07;6.60;92.80
1994;DHT22;998;49.906;10.908;2023-04-06T22:50:34;6.70;92.60
1994;DHT22;998;49.906;10.908;2023-04-06T22:53:02;6.80;92.60